Aeroporto :
LOGIN :

Iscrizione | Disclaimer

   EN    FR    IT 

 










Sommario :    VFR   VFR Marginale   IFR   IFR Intensivo   IFR Molto Intensivo
Visibilità : 
Base nubi : 
>= 8 km
>= 3000ft
5 / 8 km
1000 / 3000 ft
1500m / 5 km
500 / 1000 ft
800 / 1500m
200 / 500 ft
< 800m
< 200 ft
Simboli :   Temporali  Nebbia  Neve Forte  Precipitazioni Forti  Vento > 20 kt
SIGMETs :   Varie  Temporali  Ghiacco  Turbolenza  Onda orograficha  Ceneri Vulcaniche







- Altitudine del aeroporto : 7 ft
- Codice IATA : POW


LJPZ - Portoroz

ULTIMO METAR :
  • 190700Z 07007KT 010V110 9999 SCT060 OVC080 09/M02 Q1021

METARs OBSOLETI :
  • 190630Z 05010KT 010V100 9999 BKN060 OVC080 09/M02 Q1020
  • 190600Z 06010KT 020V100 9999 BKN060 OVC080 09/M02 Q1020
  • 190530Z 05011KT 020V090 9999 FEW030 OVC060 09/M02 Q1020
  • 190500Z 06010KT 020V100 9999 OVC060 09/M02 Q1020
  • 190430Z AUTO 06008KT 010V100 9999 OVC065/// 09/M01 Q1019

TAF TAF LJPZ
Valido dal 19 a 06 ore il 19 a 15 ore UTC


190500Z 1906/1915 06010KT 9999 FEW060 BKN095
TEMPO 1906/1915 06015G25KT
Nessun NOTAM noto per questo aeroporto.
1 SIGMET conosciuto per la FIR Ljubljana (LJLA) :
 
Turbolenza severa
LJLA SIGMET 4 VALID 190500/190800 LJLJ
LJLA LJUBLJANA FIR SEV TURB FCST SW OF LINE N4607 E01337 - N4537 E01432 SFC/6000FT STNR NC=



MetMap, La meteo Aeronautica in un colpo d'occhio ! - Copyright ORBIFLY Dicembre 2007 - Disclaimer

ORBIFLY MET'MAP TEAM :

Programmazione e sviluppo : Alexandra Zaïnal
Concezione e sviluppo : Baudouin d'Aumeries
Co-Programmazione e sviluppo : Marc-Olivier Méhu
Supporto tecnico e logistico : Manuel Goepfert
Aiuto per la traduzione : Arnaldo La Scala

Contatto : metmap@orbifly.com




FONTI E CREDITI :

   NOAA